Time;durP1;ratioP1;P1;durP2;ratioP2;P2;SDS_P1;SDS_P2;PMS_P1;PMS_P2;Temp;Humidity;BMP_temperature;BMP_pressure;BME280_temperature;BME280_humidity;BME280_pressure;Samples;Min_cycle;Max_cycle;Signal;HPM_P1;HPM_P2
2022/12/02 00:00:38;;;;;;;37.20;19.40;;;;;;;-1.01;84.70;99710.44;86449;1284;99415;-72
2022/12/02 00:02:55;;;;;;;25.70;17.40;;;;;;;-1.00;84.67;99709.22;86411;1285;22458;-74
2022/12/02 00:05:01;;;;;;;27.80;16.90;;;;;;;-1.02;84.57;99709.89;86030;1280;99695;-73
2022/12/02 00:07:05;;;;;;;26.60;17.40;;;;;;;-1.04;84.60;99705.05;86417;1277;22570;-73
2022/12/02 00:09:25;;;;;;;31.60;19.60;;;;;;;-1.05;84.66;99705.73;86334;1288;22701;-72
2022/12/02 00:11:29;;;;;;;25.00;16.40;;;;;;;-1.05;84.64;99707.80;86386;1284;100990;-74
2022/12/02 00:13:48;;;;;;;30.20;18.70;;;;;;;-1.06;84.73;99705.19;86191;1284;22679;-73
2022/12/02 00:15:55;;;;;;;22.40;17.20;;;;;;;-1.07;84.59;99703.46;86338;1283;22481;-74
2022/12/02 00:17:56;;;;;;;26.80;18.40;;;;;;;-1.07;84.58;99706.04;86347;1284;98269;-74
2022/12/02 00:19:57;;;;;;;33.30;20.20;;;;;;;-1.07;84.70;99702.42;86396;1290;22564;-72
2022/12/02 00:21:58;;;;;;;26.70;17.60;;;;;;;-1.08;84.59;99704.48;86403;1284;24036;-72
2022/12/02 00:23:59;;;;;;;33.30;19.60;;;;;;;-1.07;84.79;99706.73;86124;1280;99561;-74
2022/12/02 00:26:00;;;;;;;35.80;21.80;;;;;;;-1.08;84.59;99706.04;86152;1288;22478;-73
2022/12/02 00:28:02;;;;;;;32.20;20.90;;;;;;;-1.09;84.60;99709.82;86217;1287;22510;-72
2022/12/02 00:30:04;;;;;;;36.60;21.60;;;;;;;-1.10;84.64;99709.64;86292;1284;99915;-73
2022/12/02 00:32:05;;;;;;;32.80;21.10;;;;;;;-1.11;84.72;99703.08;86275;1280;22513;-73
2022/12/02 00:34:06;;;;;;;36.20;20.80;;;;;;;-1.11;84.62;99706.17;86404;1284;25375;-74
2022/12/02 00:36:07;;;;;;;31.10;20.00;;;;;;;-1.13;84.61;99704.60;86177;1284;99920;-72
2022/12/02 00:38:08;;;;;;;28.60;20.20;;;;;;;-1.16;84.56;99704.73;86209;1286;22477;-73
2022/12/02 00:40:10;;;;;;;29.70;18.00;;;;;;;-1.16;84.64;99704.56;86395;1285;22504;-73
2022/12/02 00:42:11;;;;;;;36.00;20.70;;;;;;;-1.17;84.61;99704.20;86422;1285;99332;-72
2022/12/02 00:46:35;;;;;;;30.30;18.80;;;;;;;-1.20;84.63;99700.91;86393;1285;22823;-73
2022/12/02 00:48:38;;;;;;;34.60;19.10;;;;;;;-1.20;84.74;99697.63;86341;1284;99369;-75
2022/12/02 00:50:39;;;;;;;28.60;18.00;;;;;;;-1.21;84.74;99696.06;86469;1293;23822;-72
2022/12/02 00:52:40;;;;;;;23.90;15.70;;;;;;;-1.21;84.69;99698.64;86832;1278;22501;-75
2022/12/02 00:54:41;;;;;;;19.70;13.80;;;;;;;-1.22;84.63;99699.33;86424;1286;99315;-73
2022/12/02 00:56:42;;;;;;;22.20;13.80;;;;;;;-1.23;84.56;99698.63;86571;1283;22477;-73
2022/12/02 00:58:43;;;;;;;23.10;14.60;;;;;;;-1.23;84.54;99695.36;86364;1288;22510;-72
2022/12/02 01:00:44;;;;;;;27.90;16.10;;;;;;;-1.22;84.56;99694.16;86176;1285;99326;-73
2022/12/02 01:02:45;;;;;;;21.60;14.60;;;;;;;-1.20;84.53;99690.90;86331;1283;25373;-73
2022/12/02 01:04:46;;;;;;;24.50;17.00;;;;;;;-1.19;84.57;99691.95;86335;1277;22504;-73
2022/12/02 01:06:48;;;;;;;26.30;16.70;;;;;;;-1.18;84.62;99686.80;86044;1288;99403;-74
2022/12/02 01:08:49;;;;;;;28.40;15.70;;;;;;;-1.19;84.53;99687.13;86459;1281;23828;-72
2022/12/02 01:10:50;;;;;;;24.30;15.20;;;;;;;-1.19;84.53;99683.15;86189;1280;24026;-73
2022/12/02 01:12:52;;;;;;;24.60;15.20;;;;;;;-1.20;84.56;99682.28;86203;1285;99173;-73
2022/12/02 01:14:53;;;;;;;21.60;16.60;;;;;;;-1.18;84.66;99685.92;86416;1285;24728;-74
2022/12/02 01:16:54;;;;;;;18.80;14.30;;;;;;;-1.18;84.51;99681.09;86544;1291;25411;-73
2022/12/02 01:18:55;;;;;;;20.60;15.30;;;;;;;-1.19;84.60;99677.45;86077;1284;99236;-73
2022/12/02 01:20:56;;;;;;;26.90;15.20;;;;;;;-1.19;84.53;99674.54;86130;1286;22783;-74
2022/12/02 01:22:57;;;;;;;23.60;13.20;;;;;;;-1.20;84.45;99672.80;86210;1284;22989;-73
2022/12/02 01:24:58;;;;;;;23.70;15.30;;;;;;;-1.20;84.43;99673.15;86277;1283;98886;-73
2022/12/02 01:26:59;;;;;;;22.40;15.70;;;;;;;-1.20;84.46;99674.00;86417;1284;25743;-74
2022/12/02 01:29:00;;;;;;;20.40;14.80;;;;;;;-1.21;84.48;99671.41;86281;1284;99481;-73
2022/12/02 01:31:01;;;;;;;23.10;16.20;;;;;;;-1.22;84.47;99669.52;86244;1283;22595;-73
2022/12/02 01:33:02;;;;;;;19.20;14.10;;;;;;;-1.21;84.46;99669.16;86298;1288;23068;-74
2022/12/02 01:35:04;;;;;;;;;;;;;;;-1.22;84.44;99667.79;86319;1278;99477;-73
2022/12/02 01:37:05;;;;;;;23.70;12.90;;;;;;;-1.23;84.59;99666.55;86499;1284;22543;-72
2022/12/02 01:39:06;;;;;;;22.00;14.40;;;;;;;-1.23;84.53;99665.35;86357;1284;22477;-74
2022/12/02 01:41:09;;;;;;;23.00;16.30;;;;;;;-1.23;84.50;99667.94;86327;1277;99794;-73
2022/12/02 01:43:11;;;;;;;25.30;15.50;;;;;;;-1.23;84.52;99669.16;86227;1285;24288;-73
2022/12/02 01:45:12;;;;;;;21.30;15.60;;;;;;;-1.23;84.50;99667.42;86390;1283;23004;-74
2022/12/02 01:47:14;;;;;;;30.10;16.60;;;;;;;-1.23;84.54;99666.23;86149;1288;99967;-73
2022/12/02 01:49:15;;;;;;;23.40;15.10;;;;;;;-1.23;84.49;99667.08;86369;1283;22620;-73
2022/12/02 01:51:16;;;;;;;;;;;;;;;-1.23;84.41;99666.21;86403;1284;22473;-74
2022/12/02 01:53:17;;;;;;;16.90;12.20;;;;;;;-1.25;84.46;99663.77;86343;1284;85674;-73
2022/12/02 01:55:22;;;;;;;23.40;14.20;;;;;;;-1.27;84.42;99665.30;86504;1281;22484;-73
2022/12/02 01:57:30;;;;;;;23.70;14.40;;;;;;;-1.28;84.45;99662.54;87038;1288;22526;-73
2022/12/02 01:59:31;;;;;;;24.70;16.80;;;;;;;-1.29;84.46;99659.94;86372;1284;98501;-73
2022/12/02 02:01:33;;;;;;;23.80;16.60;;;;;;;-1.28;84.53;99661.68;86242;1292;25912;-74
2022/12/02 02:03:34;;;;;;;22.40;16.10;;;;;;;-1.27;84.59;99660.65;86559;1284;23871;-73
2022/12/02 02:05:36;;;;;;;25.50;16.60;;;;;;;-1.27;84.53;99663.58;86355;1284;99405;-73
2022/12/02 02:07:39;;;;;;;22.50;15.50;;;;;;;-1.27;84.55;99662.05;86382;1286;22498;-73
2022/12/02 02:09:40;;;;;;;20.90;15.70;;;;;;;-1.27;84.55;99660.48;86201;1284;188990;-73
2022/12/02 02:11:42;;;;;;;31.20;18.50;;;;;;;-1.28;84.59;99658.23;86562;1292;99647;-74
2022/12/02 02:13:44;;;;;;;27.20;16.80;;;;;;;-1.27;84.68;99658.92;86546;1285;22516;-75
2022/12/02 02:15:45;;;;;;;28.90;17.20;;;;;;;-1.27;84.72;99662.04;86516;1301;22583;-74
2022/12/02 02:17:47;;;;;;;31.60;18.30;;;;;;;-1.27;84.51;99660.14;86559;1284;99665;-74
2022/12/02 02:19:49;;;;;;;28.30;17.50;;;;;;;-1.27;84.75;99662.04;86517;1284;25538;-74
2022/12/02 02:21:53;;;;;;;28.90;19.50;;;;;;;-1.26;84.61;99657.73;86460;1287;22531;-74
2022/12/02 02:23:55;;;;;;;31.70;19.00;;;;;;;-1.27;84.66;99655.82;86550;1287;99598;-73
2022/12/02 02:25:59;;;;;;;26.70;16.20;;;;;;;-1.26;84.64;99658.77;86601;1284;22631;-73
2022/12/02 02:28:01;;;;;;;26.70;16.30;;;;;;;-1.29;84.76;99657.70;86510;1294;24370;-72
2022/12/02 02:30:04;;;;;;;25.90;16.00;;;;;;;-1.28;84.75;99657.19;86684;1291;99390;-73
2022/12/02 02:32:58;;;;;;;26.00;16.10;;;;;;;-1.29;84.69;99655.98;86539;1294;24259;-73
2022/12/02 02:34:59;;;;;;;23.80;15.10;;;;;;;-1.30;84.81;99655.10;86723;1284;22789;-74
2022/12/02 02:37:00;;;;;;;;;;;;;;;-1.30;84.73;99653.04;86487;1283;22491;-74
2022/12/02 02:39:02;;;;;;;36.90;18.50;;;;;;;-1.31;84.69;99654.58;86664;1281;23437;-74
2022/12/02 02:41:03;;;;;;;27.10;16.90;;;;;;;-1.31;84.71;99653.02;86340;1287;99487;-73
2022/12/02 02:43:05;;;;;;;25.40;16.50;;;;;;;-1.32;84.68;99653.19;86712;1283;22510;-74
2022/12/02 02:45:07;;;;;;;28.50;17.30;;;;;;;-1.33;84.76;99652.83;86665;1286;22516;-73
2022/12/02 02:47:08;;;;;;;28.30;18.80;;;;;;;-1.34;84.79;99650.94;86561;1287;99691;-73
2022/12/02 02:49:10;;;;;;;25.40;17.80;;;;;;;-1.39;84.73;99645.70;86646;1284;22643;-74
2022/12/02 02:51:12;;;;;;;28.20;18.50;;;;;;;-1.34;84.82;99646.29;86586;1285;22949;-74
2022/12/02 02:53:19;;;;;;;24.90;15.90;;;;;;;-1.33;84.81;99641.46;86508;1291;100544;-72
2022/12/02 02:55:24;;;;;;;24.20;17.10;;;;;;;-1.32;84.79;99642.84;86679;1286;22555;-73
2022/12/02 02:57:25;;;;;;;25.80;16.30;;;;;;;-1.33;84.81;99645.60;86459;1288;26215;-73
2022/12/02 02:59:26;;;;;;;27.80;16.90;;;;;;;-1.33;84.73;99643.19;86376;1287;99470;-73
2022/12/02 03:01:34;;;;;;;22.00;15.50;;;;;;;-1.35;84.84;99638.67;86712;1285;22459;-74
2022/12/02 03:03:41;;;;;;;26.20;17.70;;;;;;;-1.35;84.78;99635.91;86450;1289;22560;-73
2022/12/02 03:05:43;;;;;;;25.30;17.60;;;;;;;-1.36;84.81;99634.52;86281;1288;99539;-73
2022/12/02 03:07:45;;;;;;;26.50;17.70;;;;;;;-1.36;84.76;99639.52;86379;1287;22490;-73
2022/12/02 03:09:47;;;;;;;26.20;17.50;;;;;;;-1.36;84.80;99642.63;86437;1291;25370;-73
2022/12/02 03:11:51;;;;;;;32.90;19.10;;;;;;;-1.35;84.88;99639.19;86429;1287;99575;-73
2022/12/02 03:13:54;;;;;;;30.00;19.10;;;;;;;-1.31;85.11;99639.74;86725;1281;22587;-74
2022/12/02 03:15:56;;;;;;;27.60;18.50;;;;;;;-1.31;84.97;99636.15;86588;1290;22519;-73
2022/12/02 03:17:57;;;;;;;34.10;18.80;;;;;;;-1.28;85.03;99631.86;86406;1286;98697;-72
2022/12/02 03:19:58;;;;;;;;;;;;;;;-1.26;85.05;99633.60;86620;1286;24277;-73
2022/12/02 03:22:01;;;;;;;26.50;17.90;;;;;;;-1.26;84.89;99631.02;86518;1286;24406;-72
2022/12/02 03:24:03;;;;;;;25.60;17.50;;;;;;;-1.31;85.06;99625.09;86204;1287;99747;-73
2022/12/02 03:26:05;;;;;;;28.30;18.00;;;;;;;-1.29;85.03;99627.54;86520;1279;22535;-73
2022/12/02 03:28:06;;;;;;;29.60;17.60;;;;;;;-1.28;85.04;99628.91;86293;1286;22431;-73
2022/12/02 03:30:09;;;;;;;23.70;16.10;;;;;;;-1.30;84.93;99626.31;86428;1284;99564;-73
2022/12/02 03:32:10;;;;;;;24.60;17.50;;;;;;;-1.30;84.97;99623.55;86358;1288;22529;-73
2022/12/02 03:34:12;;;;;;;28.90;16.80;;;;;;;-1.31;84.97;99624.41;86332;1287;23174;-72
2022/12/02 03:36:13;;;;;;;26.80;16.20;;;;;;;-1.32;84.96;99625.95;86404;1288;99633;-71
2022/12/02 03:38:15;;;;;;;27.30;16.30;;;;;;;-1.32;85.09;99628.37;86262;1287;22735;-72
2022/12/02 03:40:16;;;;;;;22.60;16.10;;;;;;;-1.33;84.98;99621.27;86276;1287;23852;-71
2022/12/02 03:42:19;;;;;;;28.50;17.30;;;;;;;-1.34;84.92;99624.55;86290;1285;98325;-73
2022/12/02 03:44:21;;;;;;;26.60;16.50;;;;;;;-1.34;85.01;99625.94;86398;1284;25493;-73
2022/12/02 03:46:22;;;;;;;29.60;18.30;;;;;;;-1.34;85.07;99624.02;86442;1284;23339;-72
2022/12/02 03:48:24;;;;;;;21.70;15.90;;;;;;;-1.36;85.02;99620.22;86405;1284;99639;-73
2022/12/02 03:50:27;;;;;;;21.30;13.90;;;;;;;-1.34;85.14;99622.65;86636;1285;24180;-73
2022/12/02 03:52:29;;;;;;;;;;;;;;;-1.35;85.05;99620.05;86473;1284;25328;-72
2022/12/02 03:54:30;;;;;;;;;;;;;;;-1.37;85.03;99616.94;86466;1284;84380;-73
2022/12/02 03:56:40;;;;;;;26.50;14.20;;;;;;;-1.42;85.14;99611.20;86386;1284;25524;-73
2022/12/02 03:58:50;;;;;;;20.30;13.60;;;;;;;-1.40;85.06;99619.31;86404;1286;22635;-73
2022/12/02 04:00:51;;;;;;;24.80;14.50;;;;;;;-1.40;85.06;99612.59;86300;1283;98550;-71
2022/12/02 04:02:52;;;;;;;24.40;15.60;;;;;;;-1.40;85.19;99613.45;86278;1284;22545;-73
2022/12/02 04:04:54;;;;;;;21.20;14.10;;;;;;;-1.38;85.14;99613.13;86362;1284;26420;-73
2022/12/02 04:06:55;;;;;;;28.30;15.20;;;;;;;-1.39;85.14;99612.09;86473;1285;99223;-74
2022/12/02 04:08:56;;;;;;;20.10;14.70;;;;;;;-1.40;85.15;99614.67;86441;1283;25666;-73
2022/12/02 04:10:57;;;;;;;23.10;14.00;;;;;;;-1.41;85.09;99616.55;86221;1284;24183;-73
2022/12/02 04:12:58;;;;;;;25.10;14.90;;;;;;;-1.44;85.07;99613.42;86273;1309;99271;-72
2022/12/02 04:15:00;;;;;;;26.80;16.70;;;;;;;-1.42;85.22;99613.61;86367;1286;22491;-73
2022/12/02 04:17:01;;;;;;;21.10;14.70;;;;;;;-1.41;85.22;99614.65;86316;1308;22839;-72
2022/12/02 04:19:03;;;;;;;25.90;15.30;;;;;;;-1.42;85.19;99612.57;86546;1295;99519;-73
2022/12/02 04:21:04;;;;;;;17.80;13.20;;;;;;;-1.42;85.30;99615.34;86775;1284;22447;-72
2022/12/02 04:23:05;;;;;;;;;;;;;;;-1.42;85.32;99617.41;86319;1287;98918;-71
2022/12/02 04:25:08;;;;;;;18.20;12.50;;;;;;;-1.45;85.25;99612.73;86329;1291;25562;-72
2022/12/02 04:27:09;;;;;;;26.90;14.50;;;;;;;-1.45;85.29;99615.80;86433;1284;24208;-72
2022/12/02 04:29:10;;;;;;;23.40;14.70;;;;;;;-1.46;85.31;99618.39;86228;1283;99712;-72
2022/12/02 04:31:11;;;;;;;;;;;;;;;-1.48;85.23;99617.16;86456;1292;22862;-72
2022/12/02 04:33:13;;;;;;;;;;;;;;;-1.50;85.34;99618.16;86341;1286;22441;-74
2022/12/02 04:35:14;;;;;;;24.70;15.80;;;;;;;-1.53;85.43;99617.63;86389;1285;84568;-74
2022/12/02 04:37:15;;;;;;;;;;;;;;;-1.53;85.37;99616.59;86311;1284;27844;-74
2022/12/02 04:39:16;;;;;;;23.90;14.90;;;;;;;-1.55;85.42;99620.19;86415;1285;22458;-73
2022/12/02 04:41:17;;;;;;;30.40;16.00;;;;;;;-1.56;85.36;99619.67;86308;1285;101192;-74
2022/12/02 04:43:18;;;;;;;;;;;;;;;-1.57;85.44;99619.99;86401;1286;22469;-73
2022/12/02 04:45:19;;;;;;;27.00;16.40;;;;;;;-1.58;85.37;99618.62;86384;1285;25526;-73
2022/12/02 04:47:20;;;;;;;22.30;13.20;;;;;;;-1.58;85.56;99615.17;86184;1278;99824;-74
2022/12/02 04:49:21;;;;;;;22.60;16.40;;;;;;;-1.62;85.57;99618.21;86204;1286;22474;-74
2022/12/02 04:51:25;;;;;;;22.40;16.40;;;;;;;-1.61;85.40;99619.27;86344;1281;22522;-74
2022/12/02 04:53:26;;;;;;;24.50;15.50;;;;;;;-1.61;85.52;99619.25;86413;1285;98440;-74
2022/12/02 04:55:27;;;;;;;22.60;16.10;;;;;;;-1.61;85.56;99621.51;86359;1287;22576;-73
2022/12/02 04:57:28;;;;;;;22.80;15.60;;;;;;;-1.63;85.45;99621.48;86417;1283;22556;-73
2022/12/02 04:59:30;;;;;;;27.00;16.10;;;;;;;-1.63;85.54;99617.01;86255;1285;99502;-72
2022/12/02 05:01:31;;;;;;;30.30;16.40;;;;;;;-1.62;85.62;99618.55;86494;1284;24264;-73
2022/12/02 05:03:32;;;;;;;25.60;17.40;;;;;;;-1.63;85.57;99617.17;86229;1293;22494;-72
2022/12/02 05:05:33;;;;;;;26.80;18.00;;;;;;;-1.64;85.64;99614.92;86384;1292;99333;-73
2022/12/02 05:07:34;;;;;;;;;;;;;;;-1.63;85.57;99617.34;86240;1287;24556;-74
2022/12/02 05:09:35;;;;;;;30.80;18.00;;;;;;;-1.63;85.63;99614.42;86579;1285;22511;-73
2022/12/02 05:11:37;;;;;;;;;;;;;;;-1.63;85.61;99615.27;86279;1280;99409;-73
2022/12/02 05:13:38;;;;;;;;;;;;;;;-1.65;85.63;99617.31;86372;1284;22964;-74
2022/12/02 05:15:39;;;;;;;23.40;16.90;;;;;;;-1.67;85.68;99617.12;86454;1284;22520;-73
2022/12/02 05:17:41;;;;;;;34.60;19.20;;;;;;;-1.67;85.73;99618.51;86253;1288;99400;-74
2022/12/02 05:19:42;;;;;;;34.10;19.50;;;;;;;-1.67;85.67;99620.57;86242;1286;27039;-74
2022/12/02 05:21:43;;;;;;;;;;;;;;;-1.72;85.70;99610.86;86219;1288;22457;-74
2022/12/02 05:23:45;;;;;;;;;;;;;;;-1.65;85.71;99620.42;86483;1284;84490;-73
2022/12/02 05:25:47;;;;;;;37.80;19.30;;;;;;;-1.66;85.72;99624.19;86407;1285;22477;-74
2022/12/02 05:27:48;;;;;;;25.50;17.70;;;;;;;-1.67;85.84;99620.58;86378;1284;22537;-73
2022/12/02 05:29:49;;;;;;;27.70;18.20;;;;;;;-1.67;85.73;99621.09;86030;1287;100171;-73
2022/12/02 05:31:50;;;;;;;30.50;18.80;;;;;;;-1.67;85.66;99620.05;86281;1288;22486;-73
2022/12/02 05:33:52;;;;;;;30.10;17.00;;;;;;;-1.66;85.71;99619.21;86316;1284;22465;-73
2022/12/02 05:35:54;;;;;;;27.90;17.40;;;;;;;-1.67;85.74;99616.26;86422;1284;99997;-74
2022/12/02 05:37:55;;;;;;;28.90;18.40;;;;;;;-1.68;85.70;99615.55;86255;1280;25434;-73
2022/12/02 05:39:58;;;;;;;26.20;17.40;;;;;;;-1.69;85.79;99612.45;86498;1291;22423;-73
2022/12/02 05:42:10;;;;;;;26.80;15.50;;;;;;;-1.68;85.76;99615.73;86658;1282;99545;-75
2022/12/02 05:44:27;;;;;;;27.00;14.10;;;;;;;-1.67;85.85;99613.34;86982;1280;22557;-73
2022/12/02 05:46:29;;;;;;;26.10;15.70;;;;;;;-1.67;85.75;99613.50;86534;1282;26004;-74
2022/12/02 05:48:33;;;;;;;;;;;;;;;-1.69;85.70;99614.17;86310;1287;98202;-73
2022/12/02 05:50:34;;;;;;;23.80;15.00;;;;;;;-1.71;85.75;99613.98;86391;1284;25287;-74
2022/12/02 05:52:35;;;;;;;28.40;16.90;;;;;;;-1.71;85.82;99616.21;86356;1277;22529;-74
2022/12/02 05:54:37;;;;;;;23.40;14.80;;;;;;;-1.71;85.79;99614.33;86396;1278;99425;-76
2022/12/02 05:56:38;;;;;;;23.40;15.20;;;;;;;-1.70;85.92;99618.81;86403;1288;22471;-76
2022/12/02 05:58:40;;;;;;;23.40;15.60;;;;;;;-1.71;85.68;99618.62;86527;1284;25532;-74
2022/12/02 06:00:41;;;;;;;29.00;16.60;;;;;;;-1.74;85.90;99617.39;86364;1284;98574;-73
2022/12/02 06:02:46;;;;;;;27.10;15.60;;;;;;;-1.74;85.79;99621.17;86239;1288;24278;-73
2022/12/02 06:04:47;;;;;;;22.00;15.30;;;;;;;-1.75;85.85;99621.86;86458;1281;22474;-74
2022/12/02 06:06:52;;;;;;;25.80;14.10;;;;;;;-1.77;85.77;99621.48;86255;1287;99497;-75
2022/12/02 06:08:55;;;;;;;21.80;14.40;;;;;;;-1.77;85.82;99624.59;86513;1277;22727;-74
2022/12/02 06:10:59;;;;;;;26.10;16.70;;;;;;;-1.78;85.81;99625.09;86420;1285;22699;-75
2022/12/02 06:13:06;;;;;;;24.10;15.50;;;;;;;-1.78;85.77;99624.41;86486;1278;99927;-74
2022/12/02 06:15:13;;;;;;;21.40;16.00;;;;;;;-1.79;85.89;99623.36;86642;1285;22616;-75
2022/12/02 06:17:17;;;;;;;23.90;16.30;;;;;;;-1.80;85.93;99625.24;86400;1284;100683;-75
2022/12/02 06:19:21;;;;;;;20.10;14.70;;;;;;;-1.80;85.89;99624.55;86549;1288;22566;-74
2022/12/02 06:21:22;;;;;;;19.40;14.80;;;;;;;-1.82;85.80;99626.25;86198;1284;22482;-74
2022/12/02 06:23:30;;;;;;;23.30;15.90;;;;;;;-1.84;85.91;99621.58;86048;1287;100147;-73
2022/12/02 06:25:32;;;;;;;27.50;15.90;;;;;;;-1.83;85.98;99625.89;86180;1283;22526;-73
2022/12/02 06:27:33;;;;;;;21.60;16.00;;;;;;;-1.88;85.91;99621.52;86114;1283;22608;-74
2022/12/02 06:29:34;;;;;;;20.50;14.70;;;;;;;-1.85;85.92;99631.39;85758;1287;98951;-74
2022/12/02 06:31:38;;;;;;;;;;;;;;;-1.88;85.78;99631.86;86081;1286;22545;-73
2022/12/02 06:33:39;;;;;;;24.60;16.50;;;;;;;-1.91;85.85;99631.84;86183;1288;23707;-72
2022/12/02 06:35:41;;;;;;;22.80;17.30;;;;;;;-1.91;85.99;99635.95;85849;1280;99315;-71
2022/12/02 06:37:42;;;;;;;25.80;17.80;;;;;;;-1.91;85.93;99635.42;86244;1286;25318;-73
2022/12/02 06:39:54;;;;;;;27.90;17.30;;;;;;;-1.92;86.06;99632.49;86112;1279;22531;-72
2022/12/02 06:41:55;;;;;;;32.20;18.90;;;;;;;-2.01;86.01;99615.85;86071;1284;98776;-73
2022/12/02 06:46:33;;;;;;;31.80;18.80;;;;;;;-1.93;86.07;99634.73;86117;1287;22513;-73
2022/12/02 06:48:38;;;;;;;33.00;21.70;;;;;;;-1.93;86.02;99639.71;86171;1278;99763;-73
2022/12/02 06:50:41;;;;;;;27.20;18.60;;;;;;;-1.94;85.99;99639.20;86247;1285;22583;-72
2022/12/02 06:52:45;;;;;;;30.00;21.60;;;;;;;-1.94;86.02;99637.65;86272;1285;25566;-72
2022/12/02 06:54:46;;;;;;;34.90;19.70;;;;;;;-1.94;86.06;99639.88;86112;1281;99736;-74
2022/12/02 06:56:49;;;;;;;38.20;22.30;;;;;;;-1.94;86.02;99640.04;86064;1286;24257;-73
2022/12/02 06:59:00;;;;;;;37.70;22.40;;;;;;;-1.97;86.05;99641.56;86337;1280;25173;-73
2022/12/02 07:01:17;;;;;;;38.10;24.20;;;;;;;-1.97;86.09;99644.14;86273;1281;99177;-73
2022/12/02 07:03:24;;;;;;;40.20;26.10;;;;;;;-1.98;86.09;99645.68;86157;1286;22983;-72
2022/12/02 07:05:25;;;;;;;43.00;28.30;;;;;;;-1.99;86.06;99654.45;86277;1283;99940;-73
2022/12/02 07:07:28;;;;;;;34.20;21.30;;;;;;;-2.00;86.05;99653.23;86253;1287;22498;-74
2022/12/02 07:09:46;;;;;;;45.10;26.10;;;;;;;-2.02;86.10;99654.41;87032;1284;22544;-73
2022/12/02 07:11:49;;;;;;;34.50;22.50;;;;;;;-2.04;86.14;99653.17;86299;1278;98919;-73
2022/12/02 07:13:51;;;;;;;29.60;20.70;;;;;;;-2.07;86.20;99651.59;86222;1284;22496;-72
2022/12/02 07:15:52;;;;;;;29.80;20.70;;;;;;;-2.08;86.12;99651.75;86198;1277;23867;-72
2022/12/02 07:17:57;;;;;;;26.20;17.70;;;;;;;-2.09;86.16;99651.05;86338;1275;98930;-73
2022/12/02 07:19:58;;;;;;;39.10;22.70;;;;;;;-2.10;86.13;99652.23;86088;1280;22892;-73
2022/12/02 07:21:59;;;;;;;36.10;23.60;;;;;;;-2.11;86.10;99650.49;86179;1277;22982;-72
2022/12/02 07:24:00;;;;;;;37.80;22.60;;;;;;;-2.11;86.06;99653.08;86306;1277;99306;-73
2022/12/02 07:26:01;;;;;;;34.50;21.50;;;;;;;-2.11;86.13;99649.81;86128;1286;23886;-72
2022/12/02 07:28:21;;;;;;;39.20;24.10;;;;;;;-2.10;86.11;99650.87;86307;1284;22488;-72
2022/12/02 07:30:32;;;;;;;30.40;19.80;;;;;;;-2.09;86.18;99651.39;86409;1284;98463;-73
2022/12/02 07:32:33;;;;;;;37.00;21.90;;;;;;;-2.07;86.08;99650.71;86486;1287;24563;-73
2022/12/02 07:34:34;;;;;;;35.60;20.30;;;;;;;-2.06;86.17;99650.74;86534;1278;22538;-73
2022/12/02 07:36:35;;;;;;;31.10;21.20;;;;;;;-2.06;86.13;99652.81;86381;1284;99411;-73
2022/12/02 07:38:37;;;;;;;35.80;24.70;;;;;;;-2.05;86.14;99651.42;86582;1285;22486;-73
2022/12/02 07:40:38;;;;;;;43.60;25.10;;;;;;;-2.05;86.14;99653.34;86384;1286;22533;-72
2022/12/02 07:42:40;;;;;;;33.30;21.90;;;;;;;-2.03;86.07;99652.67;86370;1281;100005;-72
2022/12/02 07:44:41;;;;;;;32.10;21.40;;;;;;;-2.07;86.10;99647.12;86643;1285;22579;-73
2022/12/02 07:46:42;;;;;;;37.60;25.10;;;;;;;-2.03;86.02;99657.33;86724;1278;22622;-74
2022/12/02 07:48:43;;;;;;;32.20;21.90;;;;;;;-2.05;86.05;99649.03;86485;1286;99654;-73
2022/12/02 07:50:44;;;;;;;27.60;17.30;;;;;;;-2.03;86.12;99652.34;86661;1278;22469;-74
2022/12/02 07:52:45;;;;;;;34.80;20.60;;;;;;;-2.02;85.98;99653.21;86802;1292;23937;-74
2022/12/02 07:54:46;;;;;;;29.20;20.60;;;;;;;-2.02;86.01;99650.80;86583;1285;99180;-73
2022/12/02 07:56:47;;;;;;;32.30;19.40;;;;;;;-2.02;85.95;99651.66;86414;1280;25344;-73
2022/12/02 07:58:48;;;;;;;32.50;18.30;;;;;;;-2.03;85.87;99651.81;86447;1278;26522;-74
2022/12/02 08:00:49;;;;;;;29.70;19.40;;;;;;;-2.03;86.00;99650.61;86299;1281;111751;-74
2022/12/02 08:02:51;;;;;;;38.70;22.20;;;;;;;-2.02;86.00;99651.48;86450;1285;22521;-74
2022/12/02 08:04:52;;;;;;;29.30;19.90;;;;;;;-2.03;85.90;99653.04;86448;1277;24243;-74
2022/12/02 08:06:53;;;;;;;27.60;18.40;;;;;;;-2.02;85.86;99651.66;86583;1277;98514;-74
2022/12/02 08:08:54;;;;;;;34.90;19.20;;;;;;;-2.00;86.03;99653.58;86426;1281;26538;-74
2022/12/02 08:10:56;;;;;;;26.30;17.80;;;;;;;-2.00;85.92;99653.75;86419;1284;25281;-74
2022/12/02 08:12:59;;;;;;;38.70;19.60;;;;;;;-1.98;85.96;99654.12;86163;1280;99322;-74
2022/12/02 08:15:00;;;;;;;33.30;19.80;;;;;;;-1.97;86.03;99656.20;86158;1286;24420;-73
2022/12/02 08:17:01;;;;;;;42.00;20.90;;;;;;;-1.97;85.90;99654.13;86305;1285;22561;-75
2022/12/02 08:19:04;;;;;;;23.70;16.60;;;;;;;-1.97;85.96;99655.85;86123;1280;99236;-74
2022/12/02 08:21:05;;;;;;;30.80;20.30;;;;;;;-1.96;86.00;99654.65;86198;1288;22502;-73
2022/12/02 08:23:06;;;;;;;28.20;16.90;;;;;;;-1.93;85.98;99661.08;86231;1284;99578;-73
2022/12/02 08:25:09;;;;;;;37.00;19.90;;;;;;;-1.94;85.95;99658.14;86305;1279;24288;-74
2022/12/02 08:27:10;;;;;;;31.60;17.80;;;;;;;-1.92;85.93;99658.86;86102;1286;26668;-74
2022/12/02 08:29:11;;;;;;;31.90;17.50;;;;;;;-1.90;86.02;99662.48;86172;1285;99946;-73
2022/12/02 08:31:12;;;;;;;29.70;18.90;;;;;;;-1.89;85.95;99664.22;86177;1278;22626;-73
2022/12/02 08:33:13;;;;;;;33.20;20.30;;;;;;;-1.87;86.00;99665.64;86141;1280;25303;-73
2022/12/02 08:35:14;;;;;;;34.40;19.50;;;;;;;-1.85;85.95;99668.76;86142;1285;99648;-73
2022/12/02 08:37:15;;;;;;;34.90;22.10;;;;;;;-1.85;85.99;99668.77;86260;1278;22550;-73
2022/12/02 08:39:16;;;;;;;34.20;21.60;;;;;;;-1.84;86.06;99671.02;86140;1286;23740;-72
2022/12/02 08:41:17;;;;;;;;;;;;;;;-1.83;85.87;99671.02;86109;1278;99563;-73
2022/12/02 08:43:18;;;;;;;35.70;21.60;;;;;;;-1.85;85.89;99672.55;86217;1280;24421;-74
2022/12/02 08:45:19;;;;;;;35.80;19.70;;;;;;;-1.84;85.91;99675.66;86378;1284;22970;-77
2022/12/02 08:47:20;;;;;;;32.20;22.10;;;;;;;-1.83;85.88;99675.67;86447;1278;99501;-74
2022/12/02 08:49:22;;;;;;;29.90;20.90;;;;;;;-1.83;85.87;99674.11;86466;1283;25067;-74
2022/12/02 08:51:23;;;;;;;27.90;19.00;;;;;;;-1.83;86.00;99674.30;86293;1286;23775;-75
2022/12/02 08:53:25;;;;;;;27.30;17.60;;;;;;;-1.83;85.90;99673.44;86735;1280;99254;-73
2022/12/02 08:55:26;;;;;;;;;;;;;;;-1.84;85.92;99676.00;86410;1280;22451;-73
2022/12/02 08:57:28;;;;;;;37.20;22.00;;;;;;;-1.85;85.85;99673.59;86498;1285;22637;-73
2022/12/02 08:59:30;;;;;;;34.20;20.20;;;;;;;-1.83;85.93;99673.24;86343;1281;99677;-74
2022/12/02 09:01:31;;;;;;;30.30;19.60;;;;;;;-1.83;85.91;99673.27;86432;1278;22555;-73
2022/12/02 09:03:32;;;;;;;37.80;18.00;;;;;;;-1.84;85.84;99671.88;86415;1288;24151;-76
2022/12/02 09:05:35;;;;;;;29.80;20.20;;;;;;;-1.81;85.95;99673.46;86459;1278;98456;-75
2022/12/02 09:07:36;;;;;;;28.20;17.90;;;;;;;-1.79;85.89;99671.94;86382;1280;23405;-77
2022/12/02 09:09:37;;;;;;;27.80;18.50;;;;;;;-1.78;85.92;99668.34;86559;1284;26689;-76
2022/12/02 09:11:38;;;;;;;33.40;20.30;;;;;;;-1.77;85.93;99668.00;86318;1288;100237;-75
2022/12/02 09:13:39;;;;;;;26.90;15.50;;;;;;;-1.74;85.93;99663.73;86431;1285;22553;-76
2022/12/02 09:15:40;;;;;;;31.20;20.70;;;;;;;-1.74;85.97;99663.55;86287;1280;24276;-77
2022/12/02 09:17:41;;;;;;;31.40;20.40;;;;;;;-1.82;85.88;99649.34;86358;1287;99790;-76
2022/12/02 09:19:42;;;;;;;29.80;21.50;;;;;;;-1.73;85.86;99662.19;86400;1278;22510;-76
2022/12/02 09:21:43;;;;;;;34.50;21.00;;;;;;;-1.72;85.93;99660.14;86570;1281;22469;-77
2022/12/02 09:23:44;;;;;;;40.00;22.40;;;;;;;-1.70;85.97;99664.64;86324;1278;99364;-77
2022/12/02 09:25:45;;;;;;;39.80;20.10;;;;;;;-1.69;85.96;99662.58;86462;1285;22574;-76
2022/12/02 09:27:47;;;;;;;29.10;19.30;;;;;;;-1.70;85.90;99665.85;86379;1280;24338;-76
2022/12/02 09:29:47;;;;;;;35.90;21.20;;;;;;;-1.71;85.80;99662.23;86485;1285;98323;-76
2022/12/02 09:31:49;;;;;;;51.60;22.80;;;;;;;-1.71;85.89;99658.77;86504;1279;22521;-76